Ridgetown, Canada
Current Conditions -  °F | °C
As of 2:00 AM on Saturday 25 Oct 2014 (Local Time) from CYCK Reporting Station
Overcast Overcast  
Wind Chill: 54°   Ceiling: 4100
Heat Index: 54°   Visibility: 9mi
Dew Point: 48°   Wind: 6mph
Humidity: 82%   Direction: 230°SW
Pressure: 29.93"   Gusts: NA
Location:  42.43°N, 81.88°W
Report Text: CYCK 250600Z AUTO 23005KT 9SM OVC041 12/09 A2993 RMK SLP135
Loading
Personal Weather Stations






























Interactive Weather Map New forecast layout! Learn more

10-Day Weather Forecast

Advertisements
Track Severe Weather on mobile